Time;durP1;ratioP1;P1;durP2;ratioP2;P2;SDS_P1;SDS_P2;PMS_P1;PMS_P2;Temp;Humidity;BMP_temperature;BMP_pressure;BME280_temperature;BME280_humidity;BME280_pressure;Samples;Min_cycle;Max_cycle;Signal;HPM_P1;HPM_P2
2023/05/12 00:02:01;;;;;;;;;;;;;;;19.56;36.03;100663.78;4953467;27;98511;-73
2023/05/12 00:04:29;;;;;;;;;;;;;;;19.53;36.10;100664.44;4967116;27;100639;-71
2023/05/12 00:06:57;;;;;;;;;;;;;;;19.51;36.05;100659.31;4951248;27;100449;-71
2023/05/12 00:09:24;;;;;;;;;;;;;;;19.50;35.85;100656.91;4982936;27;98127;-73
2023/05/12 00:11:51;;;;;;;;;;;;;;;19.48;35.91;100665.41;4950563;27;99327;-71
2023/05/12 00:14:18;;;;;;;;;;;;;;;19.46;35.91;100664.94;4983561;27;98436;-73
2023/05/12 00:16:50;;;;;;;;;;;;;;;19.45;36.06;100665.25;4986985;27;98208;-71
2023/05/12 00:19:19;;;;;;;;;;;;;;;19.44;35.98;100661.72;4998316;27;97937;-71
2023/05/12 00:21:46;;;;;;;;;;;;;;;19.43;36.07;100664.78;4985489;27;99082;-71
2023/05/12 00:24:14;;;;;;;;;;;;;;;19.41;36.12;100665.06;4983034;27;99004;-73
2023/05/12 00:26:42;;;;;;;;;;;;;;;19.41;36.02;100667.00;4967401;27;99112;-71
2023/05/12 00:29:08;;;;;;;;;;;;;;;19.38;36.23;100665.75;4969794;27;98203;-73
2023/05/12 00:31:35;;;;;;;;;;;;;;;19.36;36.17;100666.03;4968399;27;98172;-71
2023/05/12 00:34:03;;;;;;;;;;;;;;;19.34;36.21;100668.31;4984270;27;97943;-73
2023/05/12 00:36:30;;;;;;;;;;;;;;;19.33;36.02;100672.16;4966925;27;98038;-74
2023/05/12 00:38:57;;;;;;;;;;;;;;;19.33;36.04;100668.63;4971320;27;100010;-71
2023/05/12 00:41:24;;;;;;;;;;;;;;;19.31;36.17;100668.16;4986129;27;98235;-73
2023/05/12 00:43:51;;;;;;;;;;;;;;;19.29;36.21;100664.91;4982707;27;98766;-73
2023/05/12 00:46:18;;;;;;;;;;;;;;;19.27;36.38;100665.25;4982755;27;98111;-73
2023/05/12 00:48:46;;;;;;;;;;;;;;;19.26;36.09;100666.38;4968493;27;98207;-73
2023/05/12 00:51:15;;;;;;;;;;;;;;;19.24;36.23;100668.63;4984767;27;99490;-71
2023/05/12 00:53:42;;;;;;;;;;;;;;;19.22;36.32;100670.09;4985183;27;98394;-73
2023/05/12 00:56:09;;;;;;;;;;;;;;;19.20;36.23;100661.38;4985759;27;97995;-71
2023/05/12 00:58:37;;;;;;;;;;;;;;;19.20;36.12;100669.59;4982537;27;98080;-71
2023/05/12 01:01:05;;;;;;;;;;;;;;;19.17;36.20;100662.03;4968800;27;98066;-71
2023/05/12 01:03:32;;;;;;;;;;;;;;;19.16;36.34;100665.88;4983188;27;98354;-71
2023/05/12 01:06:08;;;;;;;;;;;;;;;19.14;36.26;100666.22;4984437;27;98650;-71
2023/05/12 01:08:36;;;;;;;;;;;;;;;19.12;36.27;100669.25;4973462;27;97958;-71
2023/05/12 01:11:02;;;;;;;;;;;;;;;19.11;36.16;100664.13;4966661;27;97960;-72
2023/05/12 01:13:30;;;;;;;;;;;;;;;19.08;36.36;100667.47;4967859;27;98222;-71
2023/05/12 01:15:56;;;;;;;;;;;;;;;19.07;36.39;100668.63;4969681;27;99948;-73
2023/05/12 01:18:23;;;;;;;;;;;;;;;19.05;36.46;100671.66;4963944;27;98026;-73
2023/05/12 01:20:50;;;;;;;;;;;;;;;19.03;36.66;100668.44;4983706;27;98262;-71
2023/05/12 01:23:18;;;;;;;;;;;;;;;19.01;36.48;100670.69;4967812;27;98128;-71
2023/05/12 01:25:45;;;;;;;;;;;;;;;19.00;36.28;100674.53;4982898;27;98021;-71
2023/05/12 01:28:12;;;;;;;;;;;;;;;18.97;36.21;100675.16;4981020;27;99961;-71
2023/05/12 01:30:42;;;;;;;;;;;;;;;18.95;36.51;100674.69;4993537;27;97931;-71
2023/05/12 01:33:10;;;;;;;;;;;;;;;18.94;36.28;100677.72;4982658;27;99346;-73
2023/05/12 01:35:37;;;;;;;;;;;;;;;18.92;36.45;100675.31;4979787;27;98025;-71
2023/05/12 01:38:06;;;;;;;;;;;;;;;18.89;36.40;100684.94;4968969;27;98005;-73
2023/05/12 01:40:32;;;;;;;;;;;;;;;18.87;36.26;100675.50;4983388;27;98265;-73
2023/05/12 01:43:01;;;;;;;;;;;;;;;18.86;36.33;100684.78;4967257;27;98248;-73
2023/05/12 01:45:29;;;;;;;;;;;;;;;18.83;36.56;100688.97;4966307;27;98117;-71
2023/05/12 01:47:56;;;;;;;;;;;;;;;18.82;36.49;100681.91;4968983;27;99900;-73
2023/05/12 01:50:22;;;;;;;;;;;;;;;18.80;36.43;100684.13;4982461;27;100434;-72
2023/05/12 01:52:49;;;;;;;;;;;;;;;18.78;36.57;100686.38;4964063;27;98172;-73
2023/05/12 01:55:18;;;;;;;;;;;;;;;18.77;36.40;100687.50;4984407;27;98748;-72
2023/05/12 01:57:46;;;;;;;;;;;;;;;18.75;36.38;100686.22;4964269;27;99398;-72
2023/05/12 02:00:13;;;;;;;;;;;;;;;18.75;36.59;100697.13;4984978;27;98503;-73
2023/05/12 02:02:41;;;;;;;;;;;;;;;18.73;36.35;100699.38;4982916;27;98097;-73
2023/05/12 02:05:08;;;;;;;;;;;;;;;18.71;36.46;100694.22;4997726;27;99682;-71
2023/05/12 02:07:37;;;;;;;;;;;;;;;18.70;36.55;100698.06;4983195;27;98124;-73
2023/05/12 02:10:05;;;;;;;;;;;;;;;18.68;36.48;100696.75;4981274;27;98472;-72
2023/05/12 02:12:34;;;;;;;;;;;;;;;18.67;36.56;100700.59;4980841;27;98073;-72
2023/05/12 02:15:03;;;;;;;;;;;;;;;18.64;36.45;100699.31;4968879;27;98231;-73
2023/05/12 02:17:32;;;;;;;;;;;;;;;18.62;36.52;100701.53;4982301;27;98266;-73
2023/05/12 02:19:58;;;;;;;;;;;;;;;18.60;36.60;100701.88;4964694;27;98038;-72
2023/05/12 02:22:25;;;;;;;;;;;;;;;18.58;36.56;100704.09;4965733;27;98071;-73
2023/05/12 02:24:52;;;;;;;;;;;;;;;18.56;36.44;100687.25;4982344;27;98801;-72
2023/05/12 02:27:19;;;;;;;;;;;;;;;18.53;36.45;100701.50;4952703;27;98056;-72
2023/05/12 02:29:49;;;;;;;;;;;;;;;18.52;36.57;100701.84;4982104;27;98131;-71
2023/05/12 02:32:16;;;;;;;;;;;;;;;18.50;36.46;100706.78;4974148;27;98109;-73
2023/05/12 02:34:44;;;;;;;;;;;;;;;18.49;36.55;100699.72;4982147;27;99628;-72
2023/05/12 02:37:11;;;;;;;;;;;;;;;18.47;36.47;100704.69;4965804;27;97996;-72
2023/05/12 02:39:37;;;;;;;;;;;;;;;18.44;36.57;100702.59;4966924;27;98025;-71
2023/05/12 02:42:04;;;;;;;;;;;;;;;18.43;36.64;100706.44;4980692;27;98161;-75
2023/05/12 02:44:31;;;;;;;;;;;;;;;18.41;36.75;100701.28;4995970;27;99130;-72
2023/05/12 02:47:00;;;;;;;;;;;;;;;18.37;36.59;100701.13;4965559;27;98432;-72
2023/05/12 02:49:31;;;;;;;;;;;;;;;18.37;36.72;100703.84;4970097;27;98230;-72
2023/05/12 02:51:58;;;;;;;;;;;;;;;18.35;36.58;100703.38;4965402;27;98561;-73
2023/05/12 02:54:26;;;;;;;;;;;;;;;18.33;36.69;100704.78;4968581;27;99586;-72
2023/05/12 02:56:56;;;;;;;;;;;;;;;18.31;36.63;100698.84;4969205;27;98025;-73
2023/05/12 02:59:25;;;;;;;;;;;;;;;18.29;36.60;100704.63;4968549;27;98872;-73
2023/05/12 03:01:52;;;;;;;;;;;;;;;18.28;36.62;100700.28;4965010;27;97996;-73
2023/05/12 03:04:19;;;;;;;;;;;;;;;18.26;36.72;100699.78;4966016;27;98245;-73
2023/05/12 03:06:46;;;;;;;;;;;;;;;18.26;36.71;100704.44;4979981;27;99717;-73
2023/05/12 03:09:13;;;;;;;;;;;;;;;18.24;36.83;100699.28;4966266;27;99710;-72
2023/05/12 03:11:41;;;;;;;;;;;;;;;18.23;36.68;100713.22;4981863;27;98051;-74
2023/05/12 03:14:08;;;;;;;;;;;;;;;18.20;36.72;100698.31;4969012;27;98118;-72
2023/05/12 03:16:34;;;;;;;;;;;;;;;18.21;36.81;100710.81;4972318;27;98025;-73
2023/05/12 03:19:01;;;;;;;;;;;;;;;18.19;36.75;100709.53;5004135;27;98011;-73
2023/05/12 03:21:28;;;;;;;;;;;;;;;18.18;36.75;100707.91;4969264;27;98733;-73
2023/05/12 03:23:56;;;;;;;;;;;;;;;18.15;36.67;100712.88;4987985;27;98643;-72
2023/05/12 03:26:22;;;;;;;;;;;;;;;18.13;36.75;100717.84;4988278;27;98309;-73
2023/05/12 03:28:48;;;;;;;;;;;;;;;18.11;36.87;100708.34;4968797;27;101388;-72
2023/05/12 03:31:15;;;;;;;;;;;;;;;18.09;36.65;100721.50;4968187;27;100892;-73
2023/05/12 03:33:41;;;;;;;;;;;;;;;18.07;36.72;100705.44;4987437;27;98144;-72
2023/05/12 03:36:09;;;;;;;;;;;;;;;18.05;36.65;100725.97;4984429;27;98010;-72
2023/05/12 03:38:35;;;;;;;;;;;;;;;18.04;36.82;100719.72;4969313;27;98123;-73
2023/05/12 03:41:08;;;;;;;;;;;;;;;18.03;36.81;100722.75;4990134;27;98023;-72
2023/05/12 03:43:36;;;;;;;;;;;;;;;18.02;36.74;100718.41;4986120;27;98106;-73
2023/05/12 03:46:02;;;;;;;;;;;;;;;18.01;36.69;100716.81;4974246;27;98145;-73
2023/05/12 03:48:29;;;;;;;;;;;;;;;18.01;36.63;100730.44;4988711;27;100001;-73
2023/05/12 03:50:56;;;;;;;;;;;;;;;18.01;36.64;100722.25;4973034;27;100305;-73
2023/05/12 03:53:22;;;;;;;;;;;;;;;18.01;36.63;100719.53;4987780;27;98034;-73
2023/05/12 03:55:49;;;;;;;;;;;;;;;18.02;36.74;100721.94;4974214;27;98034;-73
2023/05/12 03:58:17;;;;;;;;;;;;;;;18.03;36.77;100720.00;4958413;27;98853;-73
2023/05/12 04:00:45;;;;;;;;;;;;;;;18.04;36.62;100725.19;4988769;27;101345;-73
2023/05/12 04:03:12;;;;;;;;;;;;;;;18.04;36.68;100722.44;4975367;27;100349;-73
2023/05/12 04:05:38;;;;;;;;;;;;;;;18.06;36.52;100722.94;4970674;27;98158;-73
2023/05/12 04:08:05;;;;;;;;;;;;;;;18.08;36.74;100728.09;4989593;27;98221;-73
2023/05/12 04:10:32;;;;;;;;;;;;;;;18.10;36.57;100736.75;4989925;27;98475;-73
2023/05/12 04:13:01;;;;;;;;;;;;;;;18.11;36.52;100732.91;4968052;27;98144;-73
2023/05/12 04:15:28;;;;;;;;;;;;;;;18.12;36.55;100729.88;4994537;27;98704;-73
2023/05/12 04:17:55;;;;;;;;;;;;;;;18.15;36.50;100734.69;4965178;27;98179;-74
2023/05/12 04:20:22;;;;;;;;;;;;;;;18.17;36.55;100736.31;4980398;27;98213;-73
2023/05/12 04:22:50;;;;;;;;;;;;;;;18.19;36.76;100737.59;4967387;27;98209;-73
2023/05/12 04:25:18;;;;;;;;;;;;;;;18.25;36.70;100738.28;4978244;27;98182;-73
2023/05/12 04:27:45;;;;;;;;;;;;;;;18.29;36.69;100734.63;4965795;27;98421;-73
2023/05/12 04:30:11;;;;;;;;;;;;;;;18.33;36.51;100735.59;4981873;27;98117;-73
2023/05/12 04:32:38;;;;;;;;;;;;;;;18.35;36.59;100735.28;4962078;27;98128;-73
2023/05/12 04:35:05;;;;;;;;;;;;;;;18.35;36.55;100736.13;4963735;27;98499;-74
2023/05/12 04:37:35;;;;;;;;;;;;;;;18.38;36.56;100742.84;4962773;27;99595;-73
2023/05/12 04:40:03;;;;;;;;;;;;;;;18.42;36.56;100743.03;4980438;27;98345;-73
2023/05/12 04:42:29;;;;;;;;;;;;;;;18.42;36.49;100741.09;4979800;27;99244;-73
2023/05/12 04:44:59;;;;;;;;;;;;;;;18.45;36.59;100750.59;4962713;27;98459;-74
2023/05/12 04:47:26;;;;;;;;;;;;;;;18.46;36.50;100744.81;4982068;27;98119;-73
2023/05/12 04:49:53;;;;;;;;;;;;;;;18.48;36.47;100748.06;4962634;27;98309;-73
2023/05/12 04:52:21;;;;;;;;;;;;;;;18.50;36.55;100753.19;4979082;27;98251;-75
2023/05/12 04:54:48;;;;;;;;;;;;;;;18.51;36.58;100749.34;4963863;27;98834;-74
2023/05/12 04:57:15;;;;;;;;;;;;;;;18.54;36.62;100745.97;4964498;27;98072;-73
2023/05/12 04:59:43;;;;;;;;;;;;;;;18.59;36.63;100752.13;4981659;27;98029;-73
2023/05/12 05:02:13;;;;;;;;;;;;;;;18.65;36.25;100755.50;4964789;27;97928;-74
2023/05/12 05:04:40;;;;;;;;;;;;;;;18.73;36.29;100751.25;4981776;27;98347;-73
2023/05/12 05:07:07;;;;;;;;;;;;;;;18.80;36.35;100749.66;4965939;27;98075;-74
2023/05/12 05:09:35;;;;;;;;;;;;;;;18.91;36.45;100758.38;4963200;27;98281;-73
2023/05/12 05:12:04;;;;;;;;;;;;;;;19.00;36.28;100752.94;4961273;27;100427;-74
2023/05/12 05:14:31;;;;;;;;;;;;;;;19.11;36.31;100760.53;4964412;27;99084;-73
2023/05/12 05:16:58;;;;;;;;;;;;;;;19.23;36.19;100761.84;4982178;27;98243;-73
2023/05/12 05:19:26;;;;;;;;;;;;;;;19.34;36.17;100754.97;4964248;27;99029;-73
2023/05/12 05:21:53;;;;;;;;;;;;;;;19.46;36.14;100754.34;4976587;27;98453;-73
2023/05/12 05:24:20;;;;;;;;;;;;;;;19.60;36.14;100761.25;4978204;27;98049;-73
2023/05/12 05:26:48;;;;;;;;;;;;;;;19.73;36.04;100761.44;4964651;27;98263;-73
2023/05/12 05:29:15;;;;;;;;;;;;;;;19.87;35.79;100759.34;4963403;27;98345;-73
2023/05/12 05:31:43;;;;;;;;;;;;;;;20.00;35.79;100761.13;4980657;27;97993;-73
2023/05/12 05:34:09;;;;;;;;;;;;;;;20.15;35.78;100759.81;4964477;27;98732;-73
2023/05/12 05:36:36;;;;;;;;;;;;;;;20.29;35.69;100765.91;4981582;27;98479;-73
2023/05/12 05:39:03;;;;;;;;;;;;;;;20.45;35.78;100757.97;4964774;27;99628;-74
2023/05/12 05:41:31;;;;;;;;;;;;;;;20.61;35.64;100766.50;4962283;27;98074;-73
2023/05/12 05:43:58;;;;;;;;;;;;;;;20.77;35.69;100766.75;4978435;27;98316;-74
2023/05/12 05:46:26;;;;;;;;;;;;;;;20.95;35.57;100762.00;4965592;27;98448;-73
2023/05/12 05:48:53;;;;;;;;;;;;;;;21.13;35.38;100759.97;4981360;27;98222;-74
2023/05/12 05:51:20;;;;;;;;;;;;;;;21.32;35.41;100760.34;4963443;27;97941;-73
2023/05/12 05:53:47;;;;;;;;;;;;;;;21.52;35.37;100762.31;4981824;27;98977;-73
2023/05/12 05:56:15;;;;;;;;;;;;;;;21.75;35.35;100770.22;4978736;27;98457;-74
2023/05/12 05:58:43;;;;;;;;;;;;;;;22.00;35.21;100766.44;4995380;27;98553;-74
2023/05/12 06:01:10;;;;;;;;;;;;;;;22.26;35.01;100759.94;4965973;27;98236;-73
2023/05/12 06:03:37;;;;;;;;;;;;;;;22.55;34.87;100769.94;4963183;27;97856;-74
2023/05/12 06:06:05;;;;;;;;;;;;;;;22.90;34.79;100766.78;4964392;27;98286;-74
2023/05/12 06:08:32;;;;;;;;;;;;;;;23.26;34.79;100766.81;4977144;27;98260;-75
2023/05/12 06:10:59;;;;;;;;;;;;;;;23.79;34.40;100771.53;4963700;27;98121;-74
2023/05/12 06:13:27;;;;;;;;;;;;;;;24.42;34.25;100769.75;4976016;27;98237;-74
2023/05/12 06:15:55;;;;;;;;;;;;;;;24.94;33.94;100776.16;4957558;27;98010;-74
2023/05/12 06:18:24;;;;;;;;;;;;;;;25.37;33.98;100777.97;4961572;27;98660;-75
2023/05/12 06:20:51;;;;;;;;;;;;;;;25.75;33.73;100789.44;4963682;27;99797;-74
2023/05/12 06:23:18;;;;;;;;;;;;;;;26.04;33.72;100782.56;4962857;27;98563;-75
2023/05/12 06:25:46;;;;;;;;;;;;;;;26.40;33.71;100790.34;4963517;27;98382;-75
2023/05/12 06:28:15;;;;;;;;;;;;;;;27.07;33.15;100794.66;4965142;27;99256;-75
2023/05/12 06:30:43;;;;;;;;;;;;;;;27.62;33.05;100803.38;4960927;27;98430;-75
2023/05/12 06:33:15;;;;;;;;;;;;;;;28.01;32.75;100800.34;4963556;27;98193;-75
2023/05/12 06:35:44;;;;;;;;;;;;;;;28.45;32.65;100796.88;4962290;27;98544;-75
2023/05/12 06:38:12;;;;;;;;;;;;;;;28.85;32.50;100798.84;4961934;27;98566;-76
2023/05/12 06:40:43;;;;;;;;;;;;;;;29.19;32.60;100793.97;4962063;27;98194;-76
2023/05/12 06:43:12;;;;;;;;;;;;;;;29.51;32.75;100796.91;4975324;27;98237;-76
2023/05/12 06:45:44;;;;;;;;;;;;;;;29.74;32.88;100787.53;4978651;27;98514;-76
2023/05/12 06:48:15;;;;;;;;;;;;;;;30.01;32.87;100793.59;4976574;27;98610;-75
2023/05/12 06:50:45;;;;;;;;;;;;;;;30.27;32.51;100793.31;4982746;27;98137;-76
2023/05/12 06:53:14;;;;;;;;;;;;;;;30.55;32.87;100795.34;4961898;27;99268;-75
2023/05/12 06:55:43;;;;;;;;;;;;;;;30.81;32.49;100801.72;4962995;27;98345;-76
2023/05/12 06:58:11;;;;;;;;;;;;;;;31.08;32.36;100801.31;4981261;27;98322;-76
2023/05/12 07:00:40;;;;;;;;;;;;;;;31.32;32.51;100789.38;4961212;27;98199;-76
2023/05/12 07:03:12;;;;;;;;;;;;;;;31.58;32.49;100785.31;4962955;27;101167;-76
2023/05/12 07:05:40;;;;;;;;;;;;;;;31.89;32.36;100792.00;4962812;27;98157;-77
2023/05/12 07:08:07;;;;;;;;;;;;;;;32.20;32.36;100789.44;4978530;27;99534;-75
2023/05/12 07:10:36;;;;;;;;;;;;;;;32.50;32.28;100788.84;4960973;27;98476;-76
2023/05/12 07:13:05;;;;;;;;;;;;;;;32.82;32.39;100788.63;4962864;27;99354;-76
2023/05/12 07:15:35;;;;;;;;;;;;;;;33.18;32.06;100782.72;4962537;27;97891;-76
2023/05/12 07:18:03;;;;;;;;;;;;;;;33.55;31.70;100783.94;4967793;27;98503;-76
2023/05/12 07:20:29;;;;;;;;;;;;;;;33.92;31.68;100788.66;4966147;27;98324;-76
2023/05/12 07:22:57;;;;;;;;;;;;;;;34.29;31.58;100773.75;4981328;27;98116;-76
2023/05/12 07:25:26;;;;;;;;;;;;;;;34.67;31.79;100784.78;4980421;27;98395;-76
2023/05/12 07:27:54;;;;;;;;;;;;;;;35.07;31.41;100784.94;4964953;27;98364;-76
2023/05/12 07:30:22;;;;;;;;;;;;;;;35.41;31.29;100782.66;4965970;27;98097;-76
2023/05/12 07:32:49;;;;;;;;;;;;;;;35.77;31.43;100784.75;4962643;27;98408;-77
2023/05/12 07:35:17;;;;;;;;;;;;;;;36.10;31.23;100784.88;4982246;27;98159;-76
2023/05/12 07:37:47;;;;;;;;;;;;;;;36.43;31.40;100782.88;4967583;27;98165;-77
2023/05/12 07:40:14;;;;;;;;;;;;;;;36.79;30.94;100782.81;4979684;27;98220;-77
2023/05/12 07:42:42;;;;;;;;;;;;;;;37.19;30.88;100782.59;4966084;27;97872;-77
2023/05/12 07:45:09;;;;;;;;;;;;;;;37.62;31.03;100772.19;4965214;27;98169;-77
2023/05/12 07:47:42;;;;;;;;;;;;;;;38.01;31.01;100769.00;4981366;27;99251;-77
2023/05/12 07:50:09;;;;;;;;;;;;;;;38.48;30.49;100770.34;4961275;27;101072;-77
2023/05/12 07:52:44;;;;;;;;;;;;;;;39.01;30.08;100776.97;4969129;27;98360;-78
2023/05/12 07:55:11;;;;;;;;;;;;;;;39.62;29.94;100768.38;4967107;27;98150;-78
2023/05/12 07:57:37;;;;;;;;;;;;;;;40.22;29.81;100771.66;4964325;27;99232;-78
2023/05/12 08:00:06;;;;;;;;;;;;;;;40.84;29.59;100773.56;4965899;27;98600;-78
2023/05/12 08:02:36;;;;;;;;;;;;;;;41.41;29.19;100765.38;4968225;27;97975;-78
2023/05/12 08:05:05;;;;;;;;;;;;;;;42.03;29.32;100766.97;4981798;27;97837;-78
2023/05/12 08:07:32;;;;;;;;;;;;;;;42.65;28.92;100765.56;4965144;27;98380;-78
2023/05/12 08:10:02;;;;;;;;;;;;;;;43.28;28.73;100759.84;4979319;27;98502;-79
2023/05/12 08:12:33;;;;;;;;;;;;;;;43.99;28.61;100767.28;4980305;27;98485;-77
2023/05/12 08:15:01;;;;;;;;;;;;;;;44.66;28.18;100763.84;4964665;27;98813;-79
2023/05/12 08:17:28;;;;;;;;;;;;;;;45.10;28.09;100768.50;4982028;27;98264;-76
2023/05/12 08:19:55;;;;;;;;;;;;;;;45.49;27.84;100763.22;4964833;27;98043;-78
2023/05/12 08:22:23;;;;;;;;;;;;;;;45.91;27.73;100754.00;4957299;27;97950;-77
2023/05/12 08:24:54;;;;;;;;;;;;;;;46.28;27.84;100750.38;4966376;27;97987;-77
2023/05/12 08:27:23;;;;;;;;;;;;;;;46.61;27.29;100752.59;4956648;27;98291;-81
2023/05/12 08:29:51;;;;;;;;;;;;;;;47.05;27.09;100744.72;4964543;27;98282;-78
2023/05/12 08:32:21;;;;;;;;;;;;;;;47.47;27.34;100750.22;4981990;27;98606;-77
2023/05/12 08:34:51;;;;;;;;;;;;;;;47.86;26.70;100745.81;4968830;27;98054;-80
2023/05/12 08:37:20;;;;;;;;;;;;;;;48.11;27.05;100741.88;4963956;27;98221;-78
2023/05/12 08:39:47;;;;;;;;;;;;;;;48.28;26.77;100741.81;4980980;27;99146;-78
2023/05/12 08:42:29;;;;;;;;;;;;;;;48.60;26.81;100736.50;4967763;27;97941;-79
2023/05/12 08:44:59;;;;;;;;;;;;;;;49.13;26.54;100740.16;5012191;27;99255;-79
2023/05/12 08:47:33;;;;;;;;;;;;;;;49.73;26.36;100727.16;4979742;27;98303;-78
2023/05/12 08:50:02;;;;;;;;;;;;;;;50.03;26.29;100729.97;4962822;27;98381;-77
2023/05/12 08:52:37;;;;;;;;;;;;;;;50.48;26.24;100724.50;4994054;27;100394;-78
2023/05/12 08:55:07;;;;;;;;;;;;;;;50.81;25.97;100716.75;4957455;27;98255;-78
2023/05/12 08:57:34;;;;;;;;;;;;;;;51.23;25.64;100715.09;4944679;27;98090;-77
2023/05/12 09:00:04;;;;;;;;;;;;;;;51.51;25.98;100723.22;4958771;27;98513;-79
2023/05/12 09:02:32;;;;;;;;;;;;;;;51.84;25.99;100714.53;4989550;27;99156;-79
2023/05/12 09:04:59;;;;;;;;;;;;;;;52.21;25.58;100717.22;4979839;27;98250;-80
2023/05/12 09:07:27;;;;;;;;;;;;;;;52.64;24.96;100718.16;4981152;27;98377;-78
2023/05/12 09:09:57;;;;;;;;;;;;;;;52.86;25.21;100708.22;4969340;27;98547;-81
2023/05/12 09:12:31;;;;;;;;;;;;;;;52.96;25.19;100710.09;4957410;27;98234;-82
2023/05/12 09:15:10;;;;;;;;;;;;;;;53.19;25.48;100703.78;4967252;27;98297;-78
2023/05/12 09:17:38;;;;;;;;;;;;;;;52.91;25.34;100708.13;4976915;27;97977;-80
2023/05/12 09:20:09;;;;;;;;;;;;;;;52.13;25.84;100710.59;4958186;27;99783;-81
2023/05/12 09:22:38;;;;;;;;;;;;;;;51.57;26.82;100703.06;4947194;27;98291;-80
2023/05/12 09:25:21;;;;;;;;;;;;;;;51.18;26.73;100697.97;4946390;28;98510;-77
2023/05/12 09:27:57;;;;;;;;;;;;;;;51.05;27.22;100702.31;4936852;28;98032;-81
2023/05/12 09:30:36;;;;;;;;;;;;;;;51.44;26.75;100703.78;4945723;27;98645;-79
2023/05/12 09:33:13;;;;;;;;;;;;;;;52.31;26.08;100706.03;4961689;27;98486;-78
2023/05/12 09:35:42;;;;;;;;;;;;;;;53.18;25.53;100711.66;4943186;28;98506;-78
2023/05/12 09:38:11;;;;;;;;;;;;;;;53.80;25.06;100709.25;4944550;27;97905;-81
2023/05/12 09:40:42;;;;;;;;;;;;;;;54.71;24.08;100713.94;4955629;28;98367;-81
2023/05/12 09:43:12;;;;;;;;;;;;;;;55.12;24.21;100710.75;4962702;27;98537;-81
2023/05/12 09:45:43;;;;;;;;;;;;;;;55.45;24.23;100702.28;4961158;27;98545;-82
2023/05/12 09:48:10;;;;;;;;;;;;;;;55.90;23.56;100703.59;4943353;27;98246;-78
2023/05/12 09:50:50;;;;;;;;;;;;;;;56.14;23.78;100696.41;4962254;27;99803;-79
2023/05/12 09:53:21;;;;;;;;;;;;;;;56.52;24.04;100698.34;4958260;27;99699;-80
2023/05/12 09:55:50;;;;;;;;;;;;;;;56.98;23.72;100695.16;4946161;27;98607;-85
2023/05/12 09:58:18;;;;;;;;;;;;;;;57.22;23.44;100690.72;4935239;27;98328;-79
2023/05/12 10:00:46;;;;;;;;;;;;;;;57.52;23.16;100696.25;4960483;27;98083;-82
2023/05/12 10:03:20;;;;;;;;;;;;;;;57.62;23.58;100689.78;4959592;27;98239;-80
2023/05/12 10:05:55;;;;;;;;;;;;;;;57.54;23.22;100684.84;4945430;27;98248;-79
2023/05/12 10:08:50;;;;;;;;;;;;;;;57.70;23.28;100679.69;4951106;27;98495;-84
2023/05/12 10:11:19;;;;;;;;;;;;;;;57.81;23.50;100680.50;4982433;27;98041;-79
2023/05/12 10:13:46;;;;;;;;;;;;;;;58.10;23.57;100677.88;4972719;27;98401;-84
2023/05/12 10:16:20;;;;;;;;;;;;;;;58.16;23.21;100672.56;4946878;27;98663;-80
2023/05/12 10:18:48;;;;;;;;;;;;;;;57.96;23.86;100668.78;4945652;27;98293;-82
2023/05/12 10:21:15;;;;;;;;;;;;;;;57.92;23.88;100663.38;4942467;27;98258;-85
2023/05/12 10:23:43;;;;;;;;;;;;;;;58.05;23.34;100656.47;4945351;27;98075;-83
2023/05/12 10:26:13;;;;;;;;;;;;;;;58.15;23.52;100666.00;4964582;27;97965;-79
2023/05/12 10:28:47;;;;;;;;;;;;;;;58.17;23.80;100654.59;4948755;27;99065;-83
2023/05/12 10:31:21;;;;;;;;;;;;;;;58.03;23.72;100652.66;4944204;27;97988;-86
2023/05/12 10:33:58;;;;;;;;;;;;;;;57.96;23.21;100657.94;4960394;27;98322;-85
2023/05/12 10:36:26;;;;;;;;;;;;;;;57.92;23.50;100659.72;4959756;27;98198;-87
2023/05/12 10:38:54;;;;;;;;;;;;;;;55.58;25.18;100644.38;4943642;27;98315;-80
2023/05/12 10:41:35;;;;;;;;;;;;;;;54.68;25.61;100649.53;4991522;27;98672;-81
2023/05/12 10:44:05;;;;;;;;;;;;;;;55.71;24.17;100657.78;4956454;27;98126;-84
2023/05/12 10:46:31;;;;;;;;;;;;;;;52.30;26.51;100637.66;4942279;27;99190;-79
2023/05/12 10:49:01;;;;;;;;;;;;;;;49.36;28.55;100631.22;4944780;27;99221;-80
2023/05/12 10:51:29;;;;;;;;;;;;;;;47.48;29.55;100631.19;4962538;27;97897;-80
2023/05/12 10:53:59;;;;;;;;;;;;;;;46.43;29.62;100634.16;4961891;27;98196;-78
2023/05/12 10:56:52;;;;;;;;;;;;;;;47.50;28.04;100642.84;4951414;27;97941;-80
2023/05/12 10:59:21;;;;;;;;;;;;;;;47.08;28.33;100632.47;4969545;27;98150;-77
2023/05/12 11:02:00;;;;;;;;;;;;;;;44.73;29.56;100641.25;4943229;27;98007;-79
2023/05/12 11:04:41;;;;;;;;;;;;;;;43.11;30.77;100629.91;4963016;27;98027;-81
2023/05/12 11:07:11;;;;;;;;;;;;;;;43.08;30.05;100638.66;4976989;27;98548;-80
2023/05/12 11:09:43;;;;;;;;;;;;;;;41.34;31.10;100634.88;4939929;27;98254;-77
2023/05/12 11:12:15;;;;;;;;;;;;;;;40.26;31.29;100629.63;4958575;27;98424;-79
2023/05/12 11:14:44;;;;;;;;;;;;;;;39.58;31.53;100638.81;4973475;27;98360;-77
2023/05/12 11:17:13;;;;;;;;;;;;;;;40.04;30.62;100638.97;4964209;27;98836;-78
2023/05/12 11:19:44;;;;;;;;;;;;;;;38.97;31.46;100634.72;4975112;27;98198;-76
2023/05/12 11:22:20;;;;;;;;;;;;;;;38.27;31.60;100639.56;4976577;27;98064;-78
2023/05/12 11:24:51;;;;;;;;;;;;;;;37.53;32.14;100643.53;4977516;27;99519;-78
2023/05/12 11:27:19;;;;;;;;;;;;;;;36.96;32.08;100640.41;4978684;27;98443;-77
2023/05/12 11:29:57;;;;;;;;;;;;;;;38.26;30.52;100654.88;4978870;27;99385;-78
2023/05/12 11:32:28;;;;;;;;;;;;;;;40.17;28.61;100656.59;4977397;27;98389;-78
2023/05/12 11:35:08;;;;;;;;;;;;;;;39.13;30.00;100653.44;4961734;27;98766;-77
2023/05/12 11:37:43;;;;;;;;;;;;;;;38.35;30.30;100649.34;4955148;27;98390;-76
2023/05/12 11:40:27;;;;;;;;;;;;;;;39.89;28.92;100657.72;4957958;27;98507;-77
2023/05/12 11:42:55;;;;;;;;;;;;;;;41.28;28.14;100667.88;4977476;27;98073;-76
2023/05/12 11:45:30;;;;;;;;;;;;;;;41.08;28.28;100665.59;4966965;27;98291;-77
2023/05/12 11:48:10;;;;;;;;;;;;;;;43.27;26.90;100665.53;4960730;27;98377;-77
2023/05/12 11:50:40;;;;;;;;;;;;;;;44.31;26.16;100668.91;4952441;27;99090;-78
2023/05/12 11:53:15;;;;;;;;;;;;;;;41.96;28.34;100667.50;4968355;27;98197;-78
2023/05/12 11:55:54;;;;;;;;;;;;;;;40.66;29.13;100654.91;4976872;27;98094;-79
2023/05/12 11:58:29;;;;;;;;;;;;;;;42.10;27.88;100661.13;4973861;27;98377;-77
2023/05/12 12:01:07;;;;;;;;;;;;;;;42.95;26.93;100666.44;4977795;27;100114;-82
2023/05/12 12:03:49;;;;;;;;;;;;;;;43.35;26.95;100663.03;4964599;27;98380;-78
2023/05/12 12:06:18;;;;;;;;;;;;;;;43.69;26.73;100670.06;4964557;27;99826;-79
2023/05/12 12:09:00;;;;;;;;;;;;;;;44.01;26.45;100664.59;4964749;27;98687;-82
2023/05/12 12:11:29;;;;;;;;;;;;;;;42.02;28.43;100657.88;4965396;27;98163;-79
2023/05/12 12:13:57;;;;;;;;;;;;;;;41.03;29.04;100666.97;4963925;27;98205;-77
2023/05/12 12:16:26;;;;;;;;;;;;;;;40.43;29.34;100673.22;4951431;27;101947;-79
2023/05/12 12:18:55;;;;;;;;;;;;;;;41.11;28.48;100668.25;4981571;27;98248;-76
2023/05/12 12:21:24;;;;;;;;;;;;;;;42.05;27.54;100659.72;4980871;27;98129;-78
2023/05/12 12:23:51;;;;;;;;;;;;;;;40.99;28.61;100669.19;4963991;27;100286;-77
2023/05/12 12:26:19;;;;;;;;;;;;;;;40.29;28.88;100679.50;4967903;27;97859;-79
2023/05/12 12:28:47;;;;;;;;;;;;;;;39.49;29.35;100678.22;4965521;27;98298;-77
2023/05/12 12:31:19;;;;;;;;;;;;;;;38.72;30.29;100678.63;4966186;27;100489;-79
2023/05/12 12:33:46;;;;;;;;;;;;;;;38.02;30.50;100674.16;4959194;27;101520;-78
2023/05/12 12:36:15;;;;;;;;;;;;;;;37.87;30.44;100679.44;4978983;27;97877;-78
2023/05/12 12:38:42;;;;;;;;;;;;;;;37.07;30.52;100671.78;4965791;27;98364;-76
2023/05/12 12:41:13;;;;;;;;;;;;;;;36.41;30.91;100675.13;4956049;27;99294;-78
2023/05/12 12:43:41;;;;;;;;;;;;;;;35.85;31.03;100676.84;4959916;27;98089;-76
2023/05/12 12:46:10;;;;;;;;;;;;;;;35.39;31.06;100677.84;4956215;27;100685;-76